createdAt,value
2019-01-22T00:00:03.418Z,935.05
2019-01-22T00:01:03.727Z,935.03
2019-01-22T00:02:04.740Z,934.99
2019-01-22T00:03:05.516Z,934.99
2019-01-22T00:04:06.245Z,934.92
2019-01-22T00:05:06.823Z,934.93
2019-01-22T00:06:07.725Z,934.92
2019-01-22T00:07:08.013Z,934.9
2019-01-22T00:08:09.043Z,934.91
2019-01-22T00:09:09.522Z,934.9
2019-01-22T00:10:10.244Z,934.89
2019-01-22T00:11:10.452Z,934.9
2019-01-22T00:12:11.465Z,934.82
2019-01-22T00:13:12.215Z,934.85
2019-01-22T00:14:12.946Z,934.84
2019-01-22T00:15:13.728Z,934.83
2019-01-22T00:16:14.222Z,934.79
2019-01-22T00:17:14.685Z,934.82
2019-01-22T00:18:15.141Z,934.79
2019-01-22T00:19:15.877Z,934.84
2019-01-22T00:20:16.303Z,934.82
2019-01-22T00:21:17.746Z,934.79
2019-01-22T00:22:18.911Z,934.79
2019-01-22T00:23:19.115Z,934.81
2019-01-22T00:24:20.156Z,934.77
2019-01-22T00:25:21.302Z,934.78
2019-01-22T00:26:21.764Z,934.76
2019-01-22T00:27:22.932Z,934.74
2019-01-22T00:28:23.373Z,934.76
2019-01-22T00:29:24.245Z,934.72
2019-01-22T00:30:24.812Z,934.74
2019-01-22T00:31:25.841Z,934.72
2019-01-22T00:32:27.008Z,934.75
2019-01-22T00:33:28.628Z,934.76
2019-01-22T00:34:29.506Z,934.71
2019-01-22T00:35:30.465Z,934.72
2019-01-22T00:36:31.182Z,934.74
2019-01-22T00:37:31.643Z,934.69
2019-01-22T00:38:32.628Z,934.66
2019-01-22T00:39:33.066Z,934.66
2019-01-22T00:40:33.794Z,934.65
2019-01-22T00:41:34.567Z,934.65
2019-01-22T00:42:35.572Z,934.67
2019-01-22T00:43:36.432Z,934.68
2019-01-22T00:44:37.046Z,934.66
2019-01-22T00:45:37.805Z,934.64
2019-01-22T00:46:38.542Z,934.61
2019-01-22T00:47:39.963Z,934.57
2019-01-22T00:48:40.440Z,934.56
2019-01-22T00:49:40.890Z,934.54
2019-01-22T00:50:42.058Z,934.53
2019-01-22T00:51:42.542Z,934.57
2019-01-22T00:52:43.671Z,934.51
2019-01-22T00:53:44.010Z,934.54
2019-01-22T00:54:45.004Z,934.53
2019-01-22T00:55:45.937Z,934.51
2019-01-22T00:56:46.403Z,934.56
2019-01-22T00:57:46.587Z,934.52
2019-01-22T00:58:47.048Z,934.52
2019-01-22T00:59:47.275Z,934.55
2019-01-22T01:00:48.002Z,934.52
2019-01-22T01:01:48.763Z,934.55
2019-01-22T01:02:49.639Z,934.52
2019-01-22T01:03:50.119Z,934.55
2019-01-22T01:04:51.106Z,934.5
2019-01-22T01:05:51.982Z,934.52
2019-01-22T01:06:52.721Z,934.54
2019-01-22T01:07:53.883Z,934.44
2019-01-22T01:08:54.340Z,934.48
2019-01-22T01:09:55.351Z,934.45
2019-01-22T01:10:56.402Z,934.44
2019-01-22T01:11:56.605Z,934.44
2019-01-22T01:12:57.594Z,934.4
2019-01-22T01:13:58.618Z,934.44
2019-01-22T01:14:59.335Z,934.45
2019-01-22T01:15:59.585Z,934.45
2019-01-22T01:17:00.755Z,934.36
2019-01-22T01:18:01.482Z,934.42
2019-01-22T01:19:02.350Z,934.41
2019-01-22T01:20:03.374Z,934.42
2019-01-22T01:21:04.686Z,934.39
2019-01-22T01:22:05.136Z,934.4
2019-01-22T01:23:06.292Z,934.37
2019-01-22T01:24:07.445Z,934.38
2019-01-22T01:25:08.028Z,934.37
2019-01-22T01:26:08.232Z,934.35
2019-01-22T01:27:08.981Z,934.34
2019-01-22T01:28:10.019Z,934.35
2019-01-22T01:29:10.449Z,934.35
2019-01-22T01:30:11.330Z,934.3
2019-01-22T01:31:11.531Z,934.35
2019-01-22T01:32:12.278Z,934.31
2019-01-22T01:33:12.759Z,934.3
2019-01-22T01:34:13.253Z,934.27
2019-01-22T01:35:13.699Z,934.3
2019-01-22T01:36:14.352Z,934.29
2019-01-22T01:37:14.796Z,934.31
2019-01-22T01:38:15.439Z,934.27
2019-01-22T01:39:16.604Z,934.31
2019-01-22T01:40:17.047Z,934.28
2019-01-22T01:41:18.084Z,934.24
2019-01-22T01:42:18.889Z,934.22
2019-01-22T01:43:19.629Z,934.14
2019-01-22T01:44:20.067Z,934.15
2019-01-22T01:45:20.789Z,934.1
2019-01-22T01:46:21.725Z,934.11
2019-01-22T01:47:22.229Z,934.13
2019-01-22T01:48:22.679Z,934.04
2019-01-22T01:49:23.140Z,934.04
2019-01-22T01:50:24.158Z,934.01
2019-01-22T01:51:24.621Z,933.96
2019-01-22T01:52:25.370Z,933.95
2019-01-22T01:53:26.378Z,933.98
2019-01-22T01:54:26.843Z,933.95
2019-01-22T01:55:27.292Z,933.94
2019-01-22T01:56:27.726Z,933.92
2019-01-22T01:57:28.005Z,933.92
2019-01-22T01:58:29.037Z,933.94
2019-01-22T01:59:29.763Z,933.94
2019-01-22T02:00:30.528Z,933.94
2019-01-22T02:01:30.720Z,933.97
2019-01-22T02:02:31.421Z,933.9
2019-01-22T02:03:32.090Z,933.93
2019-01-22T02:04:32.908Z,933.93
2019-01-22T02:05:33.546Z,933.89
2019-01-22T02:06:34.438Z,933.88
2019-01-22T02:07:34.885Z,933.86
2019-01-22T02:08:35.332Z,933.87
2019-01-22T02:09:36.063Z,933.87
2019-01-22T02:10:36.790Z,933.87
2019-01-22T02:11:37.062Z,933.88
2019-01-22T02:12:37.778Z,933.88
2019-01-22T02:13:38.434Z,933.9
2019-01-22T02:14:39.151Z,933.84
2019-01-22T02:15:39.434Z,933.85
2019-01-22T02:16:40.636Z,933.83
2019-01-22T02:17:41.102Z,933.81
2019-01-22T02:18:41.856Z,933.75
2019-01-22T02:19:42.178Z,933.74
2019-01-22T02:20:42.895Z,933.76
2019-01-22T02:21:43.884Z,933.72
2019-01-22T02:22:44.099Z,933.73
2019-01-22T02:23:44.819Z,933.69
2019-01-22T02:24:45.826Z,933.69
2019-01-22T02:25:46.535Z,933.62
2019-01-22T02:26:46.980Z,933.64
2019-01-22T02:27:47.990Z,933.64
2019-01-22T02:28:49.173Z,933.58
2019-01-22T02:29:49.902Z,933.6
2019-01-22T02:30:51.075Z,933.61
2019-01-22T02:31:52.451Z,933.59
2019-01-22T02:32:53.192Z,933.54
2019-01-22T02:33:53.930Z,933.57
2019-01-22T02:34:54.697Z,933.54
2019-01-22T02:35:54.895Z,933.53
2019-01-22T02:36:55.582Z,933.52
2019-01-22T02:37:55.884Z,933.52
2019-01-22T02:38:56.611Z,933.49
2019-01-22T02:39:57.742Z,933.43
2019-01-22T02:40:59.095Z,933.45
2019-01-22T02:41:59.677Z,933.43
2019-01-22T02:43:00.425Z,933.44
2019-01-22T02:44:01.442Z,933.43
2019-01-22T02:45:02.159Z,933.4
2019-01-22T02:46:03.174Z,933.38
2019-01-22T02:47:04.145Z,933.38
2019-01-22T02:48:05.142Z,933.35
2019-01-22T02:49:06.161Z,933.36
2019-01-22T02:50:07.127Z,933.29
2019-01-22T02:51:07.657Z,933.23
2019-01-22T02:52:08.646Z,933.23
2019-01-22T02:53:09.412Z,933.21
2019-01-22T02:54:10.456Z,933.19
2019-01-22T02:55:10.780Z,933.14
2019-01-22T02:56:11.779Z,933.16
2019-01-22T02:57:12.123Z,933.14
2019-01-22T02:58:12.596Z,933.14
2019-01-22T02:59:13.128Z,933.14
2019-01-22T03:00:13.326Z,933.12
2019-01-22T03:01:14.077Z,933.14
2019-01-22T03:02:14.523Z,933.09
2019-01-22T03:03:15.857Z,933.1
2019-01-22T03:04:17.029Z,933.08
2019-01-22T03:05:17.734Z,933.04
2019-01-22T03:06:18.303Z,933.01
2019-01-22T03:07:18.485Z,932.98
2019-01-22T03:08:19.492Z,932.95
2019-01-22T03:09:20.890Z,932.92
2019-01-22T03:10:21.372Z,932.89
2019-01-22T03:11:21.547Z,932.88
2019-01-22T03:12:22.007Z,932.89
2019-01-22T03:13:22.736Z,932.84
2019-01-22T03:14:23.194Z,932.82
2019-01-22T03:15:23.998Z,932.81
2019-01-22T03:16:24.490Z,932.8
2019-01-22T03:17:25.208Z,932.79
2019-01-22T03:18:25.945Z,932.77
2019-01-22T03:19:26.551Z,932.72
2019-01-22T03:20:27.269Z,932.72
2019-01-22T03:21:28.439Z,932.69
2019-01-22T03:22:28.633Z,932.63
2019-01-22T03:23:29.066Z,932.6
2019-01-22T03:24:29.508Z,932.57
2019-01-22T03:25:30.238Z,932.58
2019-01-22T03:26:31.305Z,932.53
2019-01-22T03:27:32.232Z,932.55
2019-01-22T03:28:33.071Z,932.52
2019-01-22T03:29:34.098Z,932.52
2019-01-22T03:30:34.823Z,932.53
2019-01-22T03:31:36.171Z,932.5
2019-01-22T03:32:36.367Z,932.52
2019-01-22T03:33:36.793Z,932.48
2019-01-22T03:34:37.298Z,932.46
2019-01-22T03:35:38.012Z,932.49
2019-01-22T03:36:39.023Z,932.49
2019-01-22T03:37:39.312Z,932.44
2019-01-22T03:38:39.999Z,932.46
2019-01-22T03:39:40.975Z,932.44
2019-01-22T03:40:41.705Z,932.41
2019-01-22T03:41:42.399Z,932.43
2019-01-22T03:42:43.096Z,932.39
2019-01-22T03:43:43.338Z,932.4
2019-01-22T03:44:44.306Z,932.41
2019-01-22T03:45:45.003Z,932.41
2019-01-22T03:46:45.522Z,932.39
2019-01-22T03:47:45.951Z,932.41
2019-01-22T03:48:46.381Z,932.4
2019-01-22T03:49:47.631Z,932.39
2019-01-22T03:50:47.877Z,932.38
2019-01-22T03:51:48.287Z,932.42
2019-01-22T03:52:48.861Z,932.37
2019-01-22T03:53:54.370Z,932.37
2019-01-22T03:54:01.662Z,932.39
2019-01-22T03:55:02.365Z,932.38
2019-01-22T03:56:03.510Z,932.36
2019-01-22T03:57:04.819Z,932.38
2019-01-22T03:58:06.013Z,932.37
2019-01-22T03:59:06.311Z,932.36
2019-01-22T04:00:07.011Z,932.35
2019-01-22T04:01:07.699Z,932.34
2019-01-22T04:02:08.693Z,932.31
2019-01-22T04:03:09.677Z,932.31
2019-01-22T04:04:10.361Z,932.33
2019-01-22T04:05:10.742Z,932.32
2019-01-22T04:06:11.433Z,932.27
2019-01-22T04:07:12.453Z,932.3
2019-01-22T04:08:13.031Z,932.27
2019-01-22T04:09:13.764Z,932.33
2019-01-22T04:10:14.727Z,932.29
2019-01-22T04:11:15.697Z,932.26
2019-01-22T04:12:16.943Z,932.21
2019-01-22T04:13:17.639Z,932.23
2019-01-22T04:14:18.050Z,932.24
2019-01-22T04:15:18.725Z,932.25
2019-01-22T04:16:19.340Z,932.22
2019-01-22T04:17:19.990Z,932.2
2019-01-22T04:18:20.258Z,932.2
2019-01-22T04:19:20.728Z,932.19
2019-01-22T04:20:21.703Z,932.15
2019-01-22T04:21:22.676Z,932.13
2019-01-22T04:22:23.403Z,932.12
2019-01-22T04:23:24.095Z,932.11
2019-01-22T04:24:25.061Z,932.07
2019-01-22T04:25:26.228Z,932.1
2019-01-22T04:26:26.994Z,932.07
2019-01-22T04:27:27.686Z,932.06
2019-01-22T04:28:28.202Z,932.05
2019-01-22T04:29:28.900Z,932.04
2019-01-22T04:30:29.603Z,932.01
2019-01-22T04:31:30.297Z,932.03
2019-01-22T04:32:31.007Z,932
2019-01-22T04:33:32.150Z,932.01
2019-01-22T04:34:32.895Z,931.98
2019-01-22T04:35:34.311Z,931.98
2019-01-22T04:36:35.435Z,932.02
2019-01-22T04:37:36.404Z,932.01
2019-01-22T04:38:37.409Z,932
2019-01-22T04:39:37.826Z,931.99
2019-01-22T04:40:38.275Z,932.01
2019-01-22T04:41:39.413Z,932.04
2019-01-22T04:42:40.538Z,932.03
2019-01-22T04:43:41.269Z,932.04
2019-01-22T04:44:41.991Z,932.01
2019-01-22T04:45:42.916Z,932.05
2019-01-22T04:46:44.036Z,932.05
2019-01-22T04:47:44.737Z,931.99
2019-01-22T04:48:45.472Z,932.05
2019-01-22T04:49:46.614Z,932.02
2019-01-22T04:50:47.342Z,931.99
2019-01-22T04:51:48.039Z,932.04
2019-01-22T04:52:48.740Z,932.05
2019-01-22T04:53:49.440Z,932.06
2019-01-22T04:54:50.368Z,932.06
2019-01-22T04:55:50.612Z,932.04
2019-01-22T04:56:51.672Z,932
2019-01-22T04:57:52.470Z,932
2019-01-22T04:58:53.449Z,932
2019-01-22T04:59:54.154Z,931.99
2019-01-22T05:00:55.135Z,932.05
2019-01-22T05:01:55.665Z,931.97
2019-01-22T05:02:56.354Z,932
2019-01-22T05:03:57.497Z,931.96
2019-01-22T05:04:58.028Z,931.98
2019-01-22T05:05:58.271Z,931.96
2019-01-22T05:06:58.696Z,931.97
2019-01-22T05:07:59.117Z,931.94
2019-01-22T05:08:59.373Z,931.98
2019-01-22T05:09:59.638Z,931.91
2019-01-22T05:11:00.705Z,931.92
2019-01-22T05:12:01.690Z,931.9
2019-01-22T05:13:02.829Z,931.88
2019-01-22T05:14:03.558Z,931.91
2019-01-22T05:15:04.509Z,931.92
2019-01-22T05:16:05.596Z,931.88
2019-01-22T05:17:06.425Z,931.89
2019-01-22T05:18:06.836Z,931.85
2019-01-22T05:19:07.529Z,931.9
2019-01-22T05:20:08.766Z,931.81
2019-01-22T05:21:09.467Z,931.83
2019-01-22T05:22:10.159Z,931.79
2019-01-22T05:23:11.144Z,931.78
2019-01-22T05:24:18.776Z,931.8
2019-01-22T05:24:23.812Z,931.75
2019-01-22T05:25:24.718Z,931.78
2019-01-22T05:26:25.453Z,931.76
2019-01-22T05:27:26.142Z,931.71
2019-01-22T05:28:26.576Z,931.74
2019-01-22T05:29:26.995Z,931.73
2019-01-22T05:30:27.897Z,931.79
2019-01-22T05:31:28.452Z,931.75
2019-01-22T05:32:29.418Z,931.78
2019-01-22T05:33:29.986Z,931.79
2019-01-22T05:34:31.028Z,931.73
2019-01-22T05:35:32.168Z,931.75
2019-01-22T05:36:32.794Z,931.71
2019-01-22T05:37:33.211Z,931.71
2019-01-22T05:38:34.188Z,931.65
2019-01-22T05:39:34.714Z,931.66
2019-01-22T05:40:35.686Z,931.65
2019-01-22T05:41:35.935Z,931.67
2019-01-22T05:42:36.629Z,931.65
2019-01-22T05:43:37.672Z,931.68
2019-01-22T05:44:38.640Z,931.66
2019-01-22T05:45:39.474Z,931.7
2019-01-22T05:46:40.453Z,931.66
2019-01-22T05:47:40.874Z,931.64
2019-01-22T05:48:41.850Z,931.67
2019-01-22T05:49:42.399Z,931.63
2019-01-22T05:50:43.382Z,931.67
2019-01-22T05:51:44.111Z,931.63
2019-01-22T05:52:44.798Z,931.62
2019-01-22T05:53:45.270Z,931.62
2019-01-22T05:54:45.970Z,931.63
2019-01-22T05:55:46.430Z,931.6
2019-01-22T05:56:46.832Z,931.58
2019-01-22T05:57:47.266Z,931.57
2019-01-22T05:58:47.704Z,931.62
2019-01-22T05:59:49.122Z,931.58
2019-01-22T06:00:50.101Z,931.59
2019-01-22T06:01:50.833Z,931.55
2019-01-22T06:02:51.796Z,931.59
2019-01-22T06:03:52.491Z,931.59
2019-01-22T06:04:52.928Z,931.53
2019-01-22T06:05:54.053Z,931.58
2019-01-22T06:06:55.008Z,931.53
2019-01-22T06:07:56.138Z,931.53
2019-01-22T06:08:57.542Z,931.55
2019-01-22T06:09:57.948Z,931.54
2019-01-22T06:10:59.076Z,931.53
2019-01-22T06:11:59.315Z,931.52
2019-01-22T06:12:59.717Z,931.55
2019-01-22T06:14:00.843Z,931.54
2019-01-22T06:15:01.806Z,931.51
2019-01-22T06:16:02.617Z,931.51
2019-01-22T06:17:03.135Z,931.47
2019-01-22T06:18:03.830Z,931.51
2019-01-22T06:19:04.238Z,931.48
2019-01-22T06:20:04.923Z,931.48
2019-01-22T06:21:05.328Z,931.46
2019-01-22T06:22:06.745Z,931.45
2019-01-22T06:23:07.875Z,931.43
2019-01-22T06:24:08.404Z,931.43
2019-01-22T06:25:09.655Z,931.46
2019-01-22T06:25:55.244Z,931.39
2019-01-22T06:26:55.776Z,931.43
2019-01-22T06:27:56.735Z,931.43
2019-01-22T06:28:57.696Z,931.41
2019-01-22T06:29:58.824Z,931.42
2019-01-22T06:30:59.415Z,931.39
2019-01-22T06:32:00.119Z,931.41
2019-01-22T06:33:01.076Z,931.42
2019-01-22T06:34:01.601Z,931.4
2019-01-22T06:35:02.569Z,931.38
2019-01-22T06:36:03.084Z,931.4
2019-01-22T06:37:03.906Z,931.37
2019-01-22T06:38:04.588Z,931.32
2019-01-22T06:39:04.991Z,931.32
2019-01-22T06:40:05.971Z,931.28
2019-01-22T06:41:06.652Z,931.3
2019-01-22T06:42:07.337Z,931.31
2019-01-22T06:43:08.124Z,931.32
2019-01-22T06:44:09.271Z,931.31
2019-01-22T06:45:09.676Z,931.29
2019-01-22T06:46:10.635Z,931.31
2019-01-22T06:47:11.721Z,931.28
2019-01-22T06:48:12.461Z,931.26
2019-01-22T06:49:13.142Z,931.31
2019-01-22T06:50:13.662Z,931.27
2019-01-22T06:51:14.624Z,931.31
2019-01-22T06:52:15.029Z,931.33
2019-01-22T06:53:15.725Z,931.31
2019-01-22T06:54:16.418Z,931.33
2019-01-22T06:55:17.100Z,931.31
2019-01-22T06:56:17.779Z,931.32
2019-01-22T06:57:18.897Z,931.33
2019-01-22T06:58:20.032Z,931.3
2019-01-22T06:59:20.550Z,931.35
2019-01-22T07:00:21.233Z,931.33
2019-01-22T07:01:22.357Z,931.31
2019-01-22T07:02:22.780Z,931.36
2019-01-22T07:03:23.467Z,931.32
2019-01-22T07:04:24.167Z,931.3
2019-01-22T07:05:24.865Z,931.34
2019-01-22T07:06:26.206Z,931.33
2019-01-22T07:07:26.424Z,931.36
2019-01-22T07:08:27.830Z,931.33
2019-01-22T07:09:28.794Z,931.32
2019-01-22T07:10:29.924Z,931.32
2019-01-22T07:11:31.083Z,931.31
2019-01-22T07:12:33.714Z,931.3
2019-01-22T07:12:43.879Z,931.28
2019-01-22T07:12:57.470Z,931.27
2019-01-22T07:13:11.260Z,931.28
2019-01-22T07:13:23.484Z,931.25
2019-01-22T07:13:35.904Z,931.35
2019-01-22T07:14:36.623Z,931.28
2019-01-22T07:15:37.307Z,931.31
2019-01-22T07:16:38.470Z,931.3
2019-01-22T07:17:38.876Z,931.26
2019-01-22T07:18:39.283Z,931.3
2019-01-22T07:19:40.004Z,931.28
2019-01-22T07:20:40.389Z,931.25
2019-01-22T07:21:41.075Z,931.25
2019-01-22T07:22:42.828Z,931.26
2019-01-22T07:22:54.301Z,931.27
2019-01-22T07:23:54.070Z,931.25
2019-01-22T07:24:54.787Z,931.26
2019-01-22T07:25:55.553Z,931.22
2019-01-22T07:26:56.295Z,931.24
2019-01-22T07:27:56.981Z,931.26
2019-01-22T07:28:57.664Z,931.24
2019-01-22T07:29:57.868Z,931.25
2019-01-22T07:30:58.299Z,931.25
2019-01-22T07:31:58.998Z,931.27
2019-01-22T07:33:00.230Z,931.27
2019-01-22T07:34:01.050Z,931.3
2019-01-22T07:35:03.035Z,931.26
2019-01-22T07:36:03.822Z,931.25
2019-01-22T07:37:04.602Z,931.26
2019-01-22T07:38:05.596Z,931.26
2019-01-22T07:39:06.294Z,931.27
2019-01-22T07:40:07.260Z,931.23
2019-01-22T07:41:08.448Z,931.23
2019-01-22T07:42:10.536Z,931.23
2019-01-22T07:43:10.228Z,931.22
2019-01-22T07:44:11.039Z,931.21
2019-01-22T07:45:11.449Z,931.19
2019-01-22T07:46:11.896Z,931.19
2019-01-22T07:47:12.581Z,931.18
2019-01-22T07:48:13.712Z,931.18
2019-01-22T07:49:15.809Z,931.11
2019-01-22T07:49:26.256Z,931.16
2019-01-22T07:50:26.801Z,931.17
2019-01-22T07:51:27.088Z,931.14
2019-01-22T07:52:29.734Z,931.12
2019-01-22T07:52:42.747Z,931.15
2019-01-22T07:52:55.229Z,931.11
2019-01-22T07:53:55.535Z,931.11
2019-01-22T07:54:58.187Z,931.1
2019-01-22T07:55:08.685Z,931.11
2019-01-22T07:56:08.444Z,931.1
2019-01-22T07:57:09.413Z,931.1
2019-01-22T07:58:10.117Z,931.08
2019-01-22T07:59:12.296Z,931.1
2019-01-22T08:00:13.328Z,931.04
2019-01-22T08:01:14.461Z,931.04
2019-01-22T08:02:15.624Z,931.07
2019-01-22T08:03:16.590Z,931.04
2019-01-22T08:04:17.000Z,931.06
2019-01-22T08:05:18.417Z,931.05
2019-01-22T08:06:18.960Z,931.08
2019-01-22T08:07:19.369Z,931.02
2019-01-22T08:08:20.057Z,931.03
2019-01-22T08:09:22.920Z,931
2019-01-22T08:09:33.002Z,930.98
2019-01-22T08:10:33.789Z,930.99
2019-01-22T08:11:34.195Z,931.02
2019-01-22T08:12:36.349Z,930.97
2019-01-22T08:13:37.985Z,930.96
2019-01-22T08:14:39.113Z,931.01
2019-01-22T08:15:40.087Z,930.98
2019-01-22T08:16:40.495Z,931.01
2019-01-22T08:17:41.626Z,930.95
2019-01-22T08:18:43.760Z,930.99
2019-01-22T08:18:54.600Z,930.98
2019-01-22T08:19:55.716Z,930.99
2019-01-22T08:20:56.415Z,930.97
2019-01-22T08:21:57.589Z,930.95
2019-01-22T08:22:57.729Z,930.96
2019-01-22T08:23:58.901Z,930.95
2019-01-22T08:25:01.823Z,930.92
2019-01-22T08:25:10.704Z,930.92
2019-01-22T08:26:11.245Z,930.9
2019-01-22T08:27:13.233Z,930.9
2019-01-22T08:27:23.827Z,930.87
2019-01-22T08:27:37.477Z,930.86
2019-01-22T08:27:51.646Z,930.89
2019-01-22T08:28:05.835Z,930.91
2019-01-22T08:29:07.758Z,930.87
2019-01-22T08:29:18.832Z,930.88
2019-01-22T08:30:19.031Z,930.9
2019-01-22T08:31:19.576Z,930.88
2019-01-22T08:32:19.989Z,930.89
2019-01-22T08:33:20.679Z,930.89
2019-01-22T08:34:22.220Z,930.92
2019-01-22T08:35:23.615Z,930.87
2019-01-22T08:36:24.026Z,930.85
2019-01-22T08:37:25.890Z,930.86
2019-01-22T08:38:26.380Z,930.88
2019-01-22T08:39:27.049Z,930.84
2019-01-22T08:40:27.665Z,930.83
2019-01-22T08:41:29.100Z,930.85
2019-01-22T08:42:29.517Z,930.85
2019-01-22T08:43:30.958Z,930.82
2019-01-22T08:44:31.647Z,930.82
2019-01-22T08:45:34.337Z,930.84
2019-01-22T08:45:44.836Z,930.82
2019-01-22T08:46:45.541Z,930.86
2019-01-22T08:47:48.600Z,930.83
2019-01-22T08:48:49.022Z,930.83
2019-01-22T08:49:50.156Z,930.81
2019-01-22T08:50:50.845Z,930.82
2019-01-22T08:51:51.548Z,930.83
2019-01-22T08:52:52.679Z,930.82
2019-01-22T08:53:53.421Z,930.81
2019-01-22T08:54:53.618Z,930.82
2019-01-22T08:55:54.304Z,930.84
2019-01-22T08:56:55.169Z,930.84
2019-01-22T08:57:55.858Z,930.88
2019-01-22T08:58:56.103Z,930.81
2019-01-22T08:59:56.523Z,930.77
2019-01-22T09:00:59.155Z,930.82
2019-01-22T09:01:58.845Z,930.81
2019-01-22T09:02:59.259Z,930.8
2019-01-22T09:04:00.232Z,930.82
2019-01-22T09:05:01.209Z,930.82
2019-01-22T09:06:03.378Z,930.78
2019-01-22T09:06:14.161Z,930.8
2019-01-22T09:07:14.598Z,930.78
2019-01-22T09:08:15.058Z,930.74
2019-01-22T09:09:15.487Z,930.71
2019-01-22T09:10:16.183Z,930.72
2019-01-22T09:11:16.595Z,930.74
2019-01-22T09:12:17.290Z,930.72
2019-01-22T09:13:17.981Z,930.7
2019-01-22T09:14:18.397Z,930.67
2019-01-22T09:15:20.294Z,930.7
2019-01-22T09:15:31.389Z,930.68
2019-01-22T09:15:43.558Z,930.69
2019-01-22T09:16:44.245Z,930.69
2019-01-22T09:17:44.491Z,930.68
2019-01-22T09:18:44.899Z,930.65
2019-01-22T09:19:45.310Z,930.65
2019-01-22T09:20:46.585Z,930.62
2019-01-22T09:20:57.512Z,930.64
2019-01-22T09:21:58.352Z,930.69
2019-01-22T09:22:58.761Z,930.66
2019-01-22T09:24:00.009Z,930.68
2019-01-22T09:25:00.658Z,930.66
2019-01-22T09:26:01.627Z,930.65
2019-01-22T09:27:02.316Z,930.64
2019-01-22T09:28:03.003Z,930.65
2019-01-22T09:29:04.136Z,930.61
2019-01-22T09:30:04.833Z,930.65
2019-01-22T09:31:05.244Z,930.6
2019-01-22T09:32:06.074Z,930.6
2019-01-22T09:33:06.768Z,930.59
2019-01-22T09:34:07.462Z,930.61
2019-01-22T09:35:10.952Z,930.62
2019-01-22T09:36:12.363Z,930.62
2019-01-22T09:37:14.990Z,930.63
2019-01-22T09:37:26.481Z,930.63
2019-01-22T09:38:27.591Z,930.63
2019-01-22T09:39:28.323Z,930.64
2019-01-22T09:40:28.741Z,930.67
2019-01-22T09:41:29.986Z,930.65
2019-01-22T09:42:31.124Z,930.65
2019-01-22T09:43:31.816Z,930.67
2019-01-22T09:44:32.506Z,930.65
2019-01-22T09:45:33.245Z,930.66
2019-01-22T09:46:33.719Z,930.68
2019-01-22T09:46:46.169Z,930.7
2019-01-22T09:47:46.728Z,930.69
2019-01-22T09:48:47.861Z,930.72
2019-01-22T09:49:48.312Z,930.69
2019-01-22T09:50:49.449Z,930.69
2019-01-22T09:51:50.875Z,930.65
2019-01-22T09:52:51.287Z,930.69
2019-01-22T09:53:52.424Z,930.66
2019-01-22T09:54:53.116Z,930.64
2019-01-22T09:56:00.291Z,930.66
2019-01-22T09:56:04.719Z,930.6
2019-01-22T09:57:05.267Z,930.63
2019-01-22T09:58:05.963Z,930.64
2019-01-22T09:59:07.101Z,930.68
2019-01-22T10:00:07.790Z,930.64
2019-01-22T10:01:08.206Z,930.66
2019-01-22T10:02:08.910Z,930.65
2019-01-22T10:03:10.860Z,930.62
2019-01-22T10:03:22.291Z,930.62
2019-01-22T10:03:34.691Z,930.64
2019-01-22T10:03:46.226Z,930.64
2019-01-22T10:04:46.477Z,930.64
2019-01-22T10:05:47.171Z,930.61
2019-01-22T10:06:47.424Z,930.59
2019-01-22T10:07:48.561Z,930.57
2019-01-22T10:08:49.266Z,930.62
2019-01-22T10:09:50.408Z,930.56
2019-01-22T10:10:50.821Z,930.53
2019-01-22T10:11:51.379Z,930.54
2019-01-22T10:12:52.634Z,930.57
2019-01-22T10:13:53.068Z,930.52
2019-01-22T10:14:54.178Z,930.46
2019-01-22T10:15:55.147Z,930.49
2019-01-22T10:16:55.565Z,930.48
2019-01-22T10:17:56.542Z,930.47
2019-01-22T10:18:57.683Z,930.47
2019-01-22T10:19:58.863Z,930.44
2019-01-22T10:20:10.729Z,930.39
2019-01-22T10:21:12.326Z,930.42
2019-01-22T10:22:12.747Z,930.38
2019-01-22T10:23:14.677Z,930.4
2019-01-22T10:24:16.808Z,930.39
2019-01-22T10:25:17.228Z,930.37
2019-01-22T10:26:19.031Z,930.36
2019-01-22T10:27:19.075Z,930.38
2019-01-22T10:28:20.050Z,930.38
2019-01-22T10:29:20.490Z,930.41
2019-01-22T10:30:23.024Z,930.42
2019-01-22T10:31:24.384Z,930.43
2019-01-22T10:31:35.550Z,930.37
2019-01-22T10:32:37.631Z,930.34
2019-01-22T10:32:48.651Z,930.36
2019-01-22T10:33:01.855Z,930.37
2019-01-22T10:33:13.674Z,930.34
2019-01-22T10:34:13.821Z,930.35
2019-01-22T10:35:14.282Z,930.32
2019-01-22T10:36:14.982Z,930.35
2019-01-22T10:37:15.681Z,930.25
2019-01-22T10:38:16.122Z,930.24
2019-01-22T10:39:18.429Z,930.22
2019-01-22T10:40:20.556Z,930.25
2019-01-22T10:40:31.184Z,930.24
2019-01-22T10:41:31.709Z,930.24
2019-01-22T10:42:32.850Z,930.2
2019-01-22T10:43:33.827Z,930.12
2019-01-22T10:44:35.205Z,930.13
2019-01-22T10:44:47.431Z,930.13
2019-01-22T10:45:47.808Z,930.13
2019-01-22T10:46:48.251Z,930.12
2019-01-22T10:47:48.917Z,930.12
2019-01-22T10:48:00.794Z,930.09
2019-01-22T10:49:01.345Z,930.07
2019-01-22T10:50:02.042Z,930.05
2019-01-22T10:51:02.768Z,930
2019-01-22T10:52:04.570Z,930
2019-01-22T10:52:15.770Z,930.01
2019-01-22T10:53:15.966Z,929.99
2019-01-22T10:54:16.665Z,929.99
2019-01-22T10:55:18.043Z,929.94
2019-01-22T10:56:19.203Z,929.91
2019-01-22T10:57:19.738Z,929.94
2019-01-22T10:58:20.872Z,929.92
2019-01-22T10:59:21.296Z,929.86
2019-01-22T11:00:22.393Z,929.81
2019-01-22T11:01:23.475Z,929.83
2019-01-22T11:02:23.533Z,929.8
2019-01-22T11:03:23.846Z,929.75
2019-01-22T11:04:24.539Z,929.73
2019-01-22T11:05:25.956Z,929.71
2019-01-22T11:06:26.382Z,929.7
2019-01-22T11:07:27.078Z,929.68
2019-01-22T11:08:27.512Z,929.71
2019-01-22T11:09:27.938Z,929.67
2019-01-22T11:10:28.356Z,929.68
2019-01-22T11:11:29.063Z,929.67
2019-01-22T11:12:29.804Z,929.69
2019-01-22T11:13:30.364Z,929.63
2019-01-22T11:14:31.106Z,929.56
2019-01-22T11:15:32.108Z,929.51
2019-01-22T11:16:32.817Z,929.52
2019-01-22T11:17:34.080Z,929.49
2019-01-22T11:18:34.304Z,929.5
2019-01-22T11:19:35.004Z,929.46
2019-01-22T11:20:37.192Z,929.43
2019-01-22T11:20:48.683Z,929.42
2019-01-22T11:21:48.335Z,929.4
2019-01-22T11:22:48.762Z,929.35
2019-01-22T11:23:50.071Z,929.33
2019-01-22T11:24:53.463Z,929.32
2019-01-22T11:25:54.440Z,929.31
2019-01-22T11:26:55.167Z,929.31
2019-01-22T11:27:56.359Z,929.25
2019-01-22T11:28:56.672Z,929.27
2019-01-22T11:29:57.089Z,929.24
2019-01-22T11:30:57.511Z,929.23
2019-01-22T11:31:58.931Z,929.13
2019-01-22T11:32:59.903Z,929.13
2019-01-22T11:34:00.155Z,929.13
2019-01-22T11:35:01.188Z,929.11
2019-01-22T11:36:01.887Z,929.12
2019-01-22T11:37:02.555Z,929.03
2019-01-22T11:38:03.538Z,929.01
2019-01-22T11:38:15.614Z,929.02
2019-01-22T11:39:16.911Z,929.04
2019-01-22T11:40:17.641Z,929.02
2019-01-22T11:41:18.628Z,929.02
2019-01-22T11:42:19.045Z,929
2019-01-22T11:43:21.578Z,928.99
2019-01-22T11:43:32.725Z,928.99
2019-01-22T11:44:33.047Z,928.91
2019-01-22T11:45:34.059Z,928.88
2019-01-22T11:46:34.558Z,928.82
2019-01-22T11:47:35.323Z,928.81
2019-01-22T11:48:36.101Z,928.78
2019-01-22T11:49:37.095Z,928.71
2019-01-22T11:50:37.792Z,928.7
2019-01-22T11:51:38.772Z,928.66
2019-01-22T11:52:39.121Z,928.63
2019-01-22T11:53:39.660Z,928.61
2019-01-22T11:54:40.115Z,928.6
2019-01-22T11:55:40.560Z,928.54
2019-01-22T11:56:41.739Z,928.46
2019-01-22T11:57:42.264Z,928.47
2019-01-22T11:58:43.034Z,928.48
2019-01-22T11:59:43.455Z,928.43
2019-01-22T12:00:44.340Z,928.45
2019-01-22T12:01:44.827Z,928.4
2019-01-22T12:02:45.696Z,928.42
2019-01-22T12:03:46.994Z,928.4
2019-01-22T12:04:47.972Z,928.36
2019-01-22T12:05:53.122Z,928.3